Time;durP1;ratioP1;P1;durP2;ratioP2;P2;SDS_P1;SDS_P2;PMS_P1;PMS_P2;Temp;Humidity;BMP_temperature;BMP_pressure;BME280_temperature;BME280_humidity;BME280_pressure;Samples;Min_cycle;Max_cycle;Signal;HPM_P1;HPM_P2
2023/01/08 00:02:24;;;;;;;0.20;0.10;;;12.60;99.90;;;;;;21201543;27;20416;-69
2023/01/08 00:12:29;;;;;;;0.20;0.10;;;12.10;99.90;;;;;;21218728;27;20397;-67
2023/01/08 00:22:33;;;;;;;0.20;0.10;;;12.20;99.90;;;;;;21217430;27;20409;-69
2023/01/08 00:32:38;;;;;;;0.20;0.10;;;12.10;99.90;;;;;;21199796;27;20389;-69
2023/01/08 00:42:42;;;;;;;0.20;0.10;;;12.20;99.90;;;;;;21161026;27;20415;-68
2023/01/08 00:52:47;;;;;;;0.20;0.10;;;12.20;99.90;;;;;;21152217;27;20394;-69
2023/01/08 01:02:51;;;;;;;0.20;0.10;;;12.00;99.90;;;;;;21127985;28;20414;-69
2023/01/08 01:12:56;;;;;;;0.20;0.10;;;12.10;99.90;;;;;;21102058;28;20456;-69
2023/01/08 01:23:00;;;;;;;0.20;0.10;;;12.20;99.90;;;;;;21111427;28;21034;-69
2023/01/08 01:33:05;;;;;;;0.20;0.10;;;12.20;99.90;;;;;;21124389;28;20414;-68
2023/01/08 01:43:12;;;;;;;0.20;0.10;;;12.40;99.90;;;;;;21152008;27;20421;-69
2023/01/08 01:53:21;;;;;;;0.20;0.10;;;12.40;99.90;;;;;;21154465;27;20388;-69
2023/01/08 02:03:29;;;;;;;0.20;0.10;;;12.60;99.90;;;;;;21127887;28;20407;-69
2023/01/08 02:13:38;;;;;;;0.20;0.10;;;13.50;99.90;;;;;;21129103;28;20385;-69
2023/01/08 02:23:47;;;;;;;0.20;0.10;;;14.10;99.90;;;;;;21163577;27;20406;-69
2023/01/08 02:33:53;;;;;;;0.20;0.10;;;13.50;99.90;;;;;;21145648;27;20480;-69
2023/01/08 02:43:59;;;;;;;0.20;0.00;;;13.50;99.90;;;;;;21127886;28;20406;-70
2023/01/08 02:54:09;;;;;;;0.20;0.10;;;13.70;99.90;;;;;;21134887;28;20414;-69
2023/01/08 03:04:34;;;;;;;0.20;0.10;;;12.90;99.90;;;;;;21126370;28;20414;-69
2023/01/08 03:14:59;;;;;;;0.20;0.10;;;13.20;99.90;;;;;;21126488;28;20397;-69
2023/01/08 03:25:04;;;;;;;0.20;0.10;;;13.00;99.90;;;;;;21147579;28;20398;-69
2023/01/08 03:35:11;;;;;;;0.20;0.10;;;13.10;99.90;;;;;;21159578;28;20387;-69
2023/01/08 03:45:15;;;;;;;0.20;0.10;;;13.40;99.90;;;;;;21160042;28;20410;-69
2023/01/08 03:55:20;;;;;;;0.20;0.10;;;13.30;99.90;;;;;;21159596;28;20440;-68
2023/01/08 04:05:24;;;;;;;0.20;0.10;;;13.30;99.90;;;;;;21140018;28;20933;-68
2023/01/08 04:15:29;;;;;;;0.20;0.10;;;13.00;99.90;;;;;;21157319;28;20411;-69
2023/01/08 04:25:33;;;;;;;0.20;0.10;;;13.00;99.90;;;;;;21151484;28;20410;-68
2023/01/08 04:35:38;;;;;;;0.20;0.10;;;13.00;99.90;;;;;;21154481;28;20874;-69
2023/01/08 04:45:42;;;;;;;0.20;0.00;;;13.00;99.90;;;;;;21154530;28;20410;-69
2023/01/08 04:55:47;;;;;;;0.20;0.10;;;13.40;99.90;;;;;;21134200;28;20391;-69
2023/01/08 05:06:08;;;;;;;0.20;0.10;;;13.40;99.90;;;;;;21135103;28;20395;-70
2023/01/08 05:16:13;;;;;;;0.20;0.10;;;13.30;99.90;;;;;;21149268;28;20399;-70
2023/01/08 05:26:18;;;;;;;0.20;0.10;;;13.10;99.90;;;;;;21149531;28;20410;-70
2023/01/08 05:36:23;;;;;;;0.20;0.10;;;12.70;99.90;;;;;;21150122;28;20495;-70
2023/01/08 05:46:27;;;;;;;0.20;0.10;;;12.10;99.90;;;;;;21149814;28;20395;-69
2023/01/08 05:56:32;;;;;;;0.20;0.10;;;11.80;99.90;;;;;;21147922;28;20935;-69
2023/01/08 06:06:35;;;;;;;0.20;0.10;;;11.40;99.90;;;;;;21130522;28;20950;-70
2023/01/08 06:16:41;;;;;;;0.20;0.10;;;11.10;99.90;;;;;;21129125;28;20406;-71
2023/01/08 06:26:45;;;;;;;0.20;0.10;;;12.50;99.90;;;;;;21145063;28;20421;-70
2023/01/08 06:36:51;;;;;;;0.20;0.10;;;12.50;99.90;;;;;;21146769;28;20761;-71
2023/01/08 06:46:54;;;;;;;0.20;0.10;;;12.80;99.90;;;;;;21144077;28;20399;-70
2023/01/08 06:56:59;;;;;;;0.20;0.10;;;12.90;99.90;;;;;;21127606;28;20410;-68
2023/01/08 07:07:04;;;;;;;0.20;0.10;;;12.80;99.90;;;;;;21134847;28;20399;-69
2023/01/08 07:17:09;;;;;;;0.20;0.10;;;12.70;99.90;;;;;;21162030;28;20410;-70
2023/01/08 07:27:13;;;;;;;0.20;0.10;;;12.50;99.90;;;;;;21141867;28;20405;-69
2023/01/08 07:37:18;;;;;;;0.20;0.10;;;12.20;99.90;;;;;;21159919;28;20414;-69
2023/01/08 07:47:22;;;;;;;0.20;0.03;;;12.30;99.90;;;;;;21141365;28;20394;-69
2023/01/08 07:57:29;;;;;;;0.20;0.10;;;12.00;99.90;;;;;;21158552;28;20402;-66
2023/01/08 08:07:33;;;;;;;0.20;0.10;;;12.60;99.90;;;;;;21157428;28;20481;-71
2023/01/08 08:17:38;;;;;;;0.20;0.10;;;12.90;99.90;;;;;;21155733;28;20471;-70
2023/01/08 08:27:43;;;;;;;0.20;0.10;;;13.10;99.90;;;;;;21138199;28;20402;-71
2023/01/08 08:37:48;;;;;;;0.20;0.10;;;13.50;99.90;;;;;;21136966;28;20414;-69
2023/01/08 08:47:52;;;;;;;0.20;0.10;;;14.60;99.90;;;;;;21151493;28;20409;-70
2023/01/08 08:58:04;;;;;;;0.20;0.10;;;14.90;99.90;;;;;;21135090;28;20502;-69
2023/01/08 09:08:07;;;;;;;0.20;0.10;;;14.00;99.90;;;;;;21151595;28;20852;-69
2023/01/08 09:18:13;;;;;;;0.20;0.10;;;13.90;99.90;;;;;;21132787;28;20407;-71
2023/01/08 09:28:18;;;;;;;0.20;0.10;;;14.40;99.90;;;;;;21131566;28;20409;-69
2023/01/08 09:38:24;;;;;;;0.20;0.10;;;14.60;99.90;;;;;;21131183;28;20430;-70
2023/01/08 09:48:32;;;;;;;0.20;0.10;;;14.60;99.90;;;;;;21131038;28;20390;-72
2023/01/08 09:58:40;;;;;;;0.20;0.10;;;14.70;99.90;;;;;;21129376;28;20800;-70
2023/01/08 10:08:44;;;;;;;0.20;0.10;;;15.10;99.90;;;;;;21126247;28;20424;-71
2023/01/08 10:18:55;;;;;;;0.20;0.03;;;15.70;99.90;;;;;;21143787;28;20757;-71
2023/01/08 10:29:11;;;;;;;0.20;0.10;;;15.80;99.90;;;;;;21119327;28;20422;-71
2023/01/08 10:39:23;;;;;;;0.20;0.10;;;16.10;99.90;;;;;;21142321;28;20418;-72
2023/01/08 10:49:31;;;;;;;0.20;0.10;;;15.80;99.90;;;;;;21125913;28;20875;-71
2023/01/08 10:59:56;;;;;;;0.20;0.10;;;16.10;99.90;;;;;;21124672;28;20430;-72
2023/01/08 11:10:00;;;;;;;0.20;0.10;;;16.60;99.90;;;;;;21143544;28;20749;-72
2023/01/08 11:20:20;;;;;;;0.20;0.10;;;16.30;99.90;;;;;;21124409;28;20415;-67
2023/01/08 11:30:53;;;;;;;0.20;0.10;;;16.20;99.90;;;;;;21139718;28;20393;-70
2023/01/08 11:41:28;;;;;;;0.20;0.10;;;16.20;99.90;;;;;;21139150;28;20411;-69
2023/01/08 11:51:53;;;;;;;0.20;0.10;;;16.30;99.90;;;;;;21136237;27;20410;-70
2023/01/08 12:02:06;;;;;;;0.20;0.10;;;16.60;99.90;;;;;;21159821;27;20405;-70
2023/01/08 12:12:25;;;;;;;0.20;0.10;;;17.00;99.90;;;;;;21135681;27;20409;-71
2023/01/08 12:22:44;;;;;;;0.20;0.10;;;16.60;99.90;;;;;;21139907;27;20394;-69
2023/01/08 12:32:52;;;;;;;0.20;0.10;;;15.70;99.90;;;;;;21152022;27;20787;-69
2023/01/08 12:42:59;;;;;;;0.20;0.10;;;16.30;99.90;;;;;;21160767;27;20459;-70
2023/01/08 12:53:09;;;;;;;0.20;0.10;;;16.00;99.90;;;;;;21139232;27;20424;-70
2023/01/08 13:03:22;;;;;;;0.20;0.10;;;16.10;99.90;;;;;;21089075;27;20435;-70
2023/01/08 13:13:28;;;;;;;0.20;0.10;;;16.00;99.90;;;;;;21132931;28;20418;-70
2023/01/08 13:23:37;;;;;;;0.20;0.10;;;15.90;99.90;;;;;;21130414;28;21353;-70
2023/01/08 13:33:42;;;;;;;0.20;0.10;;;15.40;99.90;;;;;;21113934;28;20511;-71
2023/01/08 13:43:48;;;;;;;0.20;0.10;;;15.40;99.90;;;;;;21147642;28;20398;-69
2023/01/08 13:53:52;;;;;;;0.20;0.10;;;15.80;99.90;;;;;;21111918;28;20742;-70
2023/01/08 14:03:57;;;;;;;0.20;0.10;;;15.70;99.90;;;;;;21128228;28;20785;-71
2023/01/08 14:14:03;;;;;;;0.20;0.10;;;15.80;99.90;;;;;;21127133;28;20401;-68
2023/01/08 14:24:15;;;;;;;0.20;0.10;;;15.30;99.90;;;;;;21102789;27;20406;-70
2023/01/08 14:34:20;;;;;;;0.20;0.10;;;15.20;99.90;;;;;;21134488;27;20398;-68
2023/01/08 14:44:25;;;;;;;0.20;0.00;;;15.60;99.90;;;;;;21132878;27;20462;-71
2023/01/08 14:54:40;;;;;;;0.20;0.10;;;15.70;99.90;;;;;;21105670;28;20873;-70
2023/01/08 15:04:45;;;;;;;0.20;0.10;;;16.10;99.90;;;;;;21099947;28;20430;-68
2023/01/08 15:14:49;;;;;;;0.20;0.10;;;16.10;99.90;;;;;;21126209;28;20403;-72
2023/01/08 15:24:58;;;;;;;0.20;0.10;;;16.20;99.90;;;;;;21153666;28;20460;-71
2023/01/08 15:35:12;;;;;;;0.20;0.10;;;16.10;99.90;;;;;;21133770;28;20789;-71
2023/01/08 15:45:19;;;;;;;0.20;0.10;;;16.00;99.90;;;;;;21141095;28;20403;-72
2023/01/08 15:55:25;;;;;;;0.20;0.10;;;15.90;99.90;;;;;;21141782;28;20432;-71
2023/01/08 16:05:31;;;;;;;0.20;0.10;;;16.00;99.90;;;;;;21123196;28;20434;-71
2023/01/08 16:15:35;;;;;;;0.20;0.10;;;16.00;99.90;;;;;;21157358;28;20954;-72
2023/01/08 16:25:40;;;;;;;0.20;0.10;;;15.80;99.90;;;;;;21137745;28;20403;-70
2023/01/08 16:35:44;;;;;;;0.20;0.10;;;15.50;99.90;;;;;;21155121;28;20464;-71
2023/01/08 16:45:49;;;;;;;0.20;0.10;;;15.30;99.90;;;;;;21154686;28;20399;-66
2023/01/08 16:55:53;;;;;;;0.20;0.10;;;15.40;99.90;;;;;;21154034;28;20742;-70
2023/01/08 17:06:03;;;;;;;0.20;0.10;;;15.40;99.90;;;;;;21150950;28;20621;-71
2023/01/08 17:16:08;;;;;;;0.20;0.10;;;15.40;99.90;;;;;;21149617;28;20508;-70
2023/01/08 17:26:16;;;;;;;0.20;0.10;;;15.70;99.90;;;;;;21127844;28;20970;-72
2023/01/08 17:36:38;;;;;;;0.20;0.10;;;15.40;99.90;;;;;;21147765;28;20482;-69
2023/01/08 17:46:44;;;;;;;0.20;0.08;;;15.00;99.90;;;;;;21126045;28;20459;-71
2023/01/08 17:56:48;;;;;;;0.20;0.10;;;15.00;99.90;;;;;;21145963;28;20413;-71
2023/01/08 18:17:15;;;;;;;0.20;0.10;;;14.80;99.90;;;;;;21119773;28;20390;-72
2023/01/08 18:27:20;;;;;;;0.20;0.00;;;15.00;99.90;;;;;;21143759;28;20719;-72
2023/01/08 18:37:23;;;;;;;0.20;0.00;;;14.90;99.90;;;;;;21124129;28;20946;-72
2023/01/08 18:47:28;;;;;;;0.20;0.10;;;14.80;99.90;;;;;;21141145;28;20879;-71
2023/01/08 18:57:33;;;;;;;0.20;0.10;;;14.90;99.90;;;;;;21082161;28;20430;-71
2023/01/08 19:07:40;;;;;;;0.20;0.10;;;15.10;99.90;;;;;;21118149;28;20410;-72
2023/01/08 19:17:43;;;;;;;0.20;0.10;;;15.20;99.90;;;;;;21117030;28;20417;-70
2023/01/08 19:27:49;;;;;;;0.20;0.10;;;15.30;99.90;;;;;;21031790;28;20903;-70
2023/01/08 19:37:53;;;;;;;0.20;0.10;;;15.20;99.90;;;;;;21112428;28;20449;-72
2023/01/08 19:47:58;;;;;;;0.20;0.10;;;15.40;99.90;;;;;;21117849;28;21144;-73
2023/01/08 19:58:02;;;;;;;0.20;0.10;;;15.50;99.90;;;;;;21059515;28;20502;-71
2023/01/08 20:08:07;;;;;;;0.20;0.10;;;15.50;99.90;;;;;;21121097;28;20415;-72
2023/01/08 20:18:29;;;;;;;0.20;0.10;;;15.40;99.90;;;;;;21149973;28;20956;-76
2023/01/08 20:28:36;;;;;;;0.20;0.10;;;15.70;99.90;;;;;;21134180;28;20422;-71
2023/01/08 20:38:40;;;;;;;0.20;0.00;;;15.70;99.90;;;;;;21130314;28;20465;-66
2023/01/08 20:48:45;;;;;;;0.20;0.10;;;16.00;99.90;;;;;;21131582;28;20469;-66
2023/01/08 20:58:50;;;;;;;0.20;0.10;;;16.10;99.90;;;;;;21059624;28;20447;-67
2023/01/08 21:08:57;;;;;;;0.20;0.10;;;16.30;99.90;;;;;;21041871;28;20404;-70
2023/01/08 21:19:18;;;;;;;0.20;0.10;;;16.30;99.90;;;;;;21055541;28;20411;-67
2023/01/08 21:29:23;;;;;;;0.20;0.08;;;16.60;99.90;;;;;;21082258;28;20546;-67
2023/01/08 21:39:27;;;;;;;0.20;0.00;;;17.00;99.90;;;;;;21146802;28;20403;-67
2023/01/08 21:49:34;;;;;;;0.20;0.10;;;16.80;99.90;;;;;;21127041;28;20402;-67
2023/01/08 21:59:38;;;;;;;0.20;0.10;;;16.80;99.90;;;;;;21147346;28;20413;-67
2023/01/08 22:09:43;;;;;;;0.20;0.00;;;16.70;99.90;;;;;;21148953;28;20483;-66
2023/01/08 22:19:48;;;;;;;0.20;0.10;;;16.40;99.90;;;;;;21148161;28;20410;-70
2023/01/08 22:30:12;;;;;;;0.20;0.10;;;16.10;99.90;;;;;;21147956;28;20411;-70
2023/01/08 22:40:16;;;;;;;0.20;0.10;;;15.60;99.90;;;;;;21129088;28;20403;-70
2023/01/08 22:50:21;;;;;;;0.20;0.10;;;15.40;99.90;;;;;;21145888;28;20402;-70
2023/01/08 23:00:25;;;;;;;0.20;0.10;;;15.40;99.90;;;;;;21146785;28;20414;-70
2023/01/08 23:10:31;;;;;;;0.20;0.10;;;15.10;99.90;;;;;;21143258;28;20449;-70
2023/01/08 23:20:35;;;;;;;0.20;0.10;;;15.00;99.90;;;;;;21145213;28;21082;-70
2023/01/08 23:30:42;;;;;;;0.20;0.00;;;15.20;99.90;;;;;;21144761;28;20390;-70
2023/01/08 23:40:46;;;;;;;0.20;0.10;;;15.80;99.90;;;;;;21128013;28;20402;-70
2023/01/08 23:50:51;;;;;;;0.20;0.10;;;15.50;99.90;;;;;;21142987;28;20406;-71
